Terminal Aerodrome Forecast
Issued by NWS

Home | Current Version | Previous Version | Text Only | Print | Product List | Glossary On
Versions: 1 2 3 4 5 6 7 8 9 10 11 12 13 14 15 16 17 18 19 20 21 22 23 24 25 26 27 28 29 30 31 32 33 34 35 36 37 38 39 40
000
FTUS44 KHGX 222327
TAFCXO
TAF
KCXO 222327Z 2300/2324 31003KT P6SM VCTS SCT035CB
     FM230100 00000KT P6SM FEW030
     FM230900 00000KT 4SM BR SCT015
     FM231400 VRB03KT P6SM SCT030 SCT250=

USA.gov is the U.S. government's official web portal to all federal, state and local government web resources and services.